createdAt,value
2018-07-14T00:00:24.286Z,76.70
2018-07-14T00:02:27.911Z,76.50
2018-07-14T00:04:31.408Z,76.70
2018-07-14T00:08:38.160Z,77.40
2018-07-14T00:10:41.733Z,77.10
2018-07-14T00:12:45.311Z,77.30
2018-07-14T00:14:48.835Z,76.90
2018-07-14T00:16:52.307Z,78.40
2018-07-14T00:18:55.910Z,80.10
2018-07-14T00:20:59.419Z,81.20
2018-07-14T00:23:02.981Z,81.30
2018-07-14T00:25:06.765Z,81.90
2018-07-14T00:27:10.260Z,81.70
2018-07-14T00:29:13.779Z,82.20
2018-07-14T00:31:17.462Z,82.70
2018-07-14T00:33:21.002Z,81.60
2018-07-14T00:35:24.620Z,80.90
2018-07-14T00:37:28.131Z,80.70
2018-07-14T00:39:31.643Z,81.60
2018-07-14T00:41:35.132Z,82.20
2018-07-14T00:43:38.643Z,81.20
2018-07-14T00:45:42.208Z,81.60
2018-07-14T00:47:45.753Z,83.20
2018-07-14T00:49:49.252Z,82.90
2018-07-14T00:51:52.752Z,81.20
2018-07-14T00:53:56.285Z,81.30
2018-07-14T00:55:59.890Z,81.10
2018-07-14T00:58:03.480Z,80.10
2018-07-14T01:00:07.149Z,81.80
2018-07-14T01:02:10.630Z,83.70
2018-07-14T01:04:14.190Z,83.50
2018-07-14T01:06:17.699Z,82.40
2018-07-14T01:08:21.196Z,81.50
2018-07-14T01:12:27.896Z,82.70
2018-07-14T01:14:31.408Z,83.20
2018-07-14T01:16:34.972Z,83.10
2018-07-14T01:18:38.507Z,84.00
2018-07-14T01:20:42.017Z,83.90
2018-07-14T01:22:45.516Z,83.10
2018-07-14T01:24:49.037Z,82.80
2018-07-14T01:26:52.547Z,82.90
2018-07-14T01:28:56.180Z,84.00
2018-07-14T01:30:59.717Z,86.00
2018-07-14T01:33:03.207Z,85.00
2018-07-14T01:35:07.243Z,83.70
2018-07-14T01:37:10.805Z,82.50
2018-07-14T01:39:14.289Z,81.60
2018-07-14T01:41:17.811Z,82.80
2018-07-14T01:43:21.281Z,82.90
2018-07-14T01:45:24.958Z,81.90
2018-07-14T01:47:28.444Z,80.90
2018-07-14T01:49:31.894Z,80.30
2018-07-14T01:51:35.458Z,81.60
2018-07-14T01:53:38.937Z,82.60
2018-07-14T01:55:42.483Z,83.50
2018-07-14T01:57:46.043Z,84.70
2018-07-14T01:59:49.536Z,85.90
2018-07-14T02:01:53.086Z,84.60
2018-07-14T02:03:56.665Z,83.50
2018-07-14T02:06:00.160Z,83.20
2018-07-14T02:08:03.659Z,85.00
2018-07-14T02:10:07.371Z,84.90
2018-07-14T02:12:10.912Z,85.60
2018-07-14T02:14:14.424Z,85.20
2018-07-14T02:16:17.966Z,84.20
2018-07-14T02:18:21.455Z,83.00
2018-07-14T02:20:25.007Z,82.40
2018-07-14T02:22:28.642Z,81.20
2018-07-14T02:24:32.186Z,80.50
2018-07-14T02:26:35.696Z,80.10
2018-07-14T02:28:39.454Z,80.00
2018-07-14T02:30:42.954Z,80.10
2018-07-14T02:34:49.970Z,79.50
2018-07-14T02:36:53.486Z,79.50
2018-07-14T02:38:56.961Z,79.50
2018-07-14T02:41:00.455Z,79.60
2018-07-14T02:43:04.115Z,79.90
2018-07-14T02:45:07.884Z,80.90
2018-07-14T02:47:11.395Z,81.40
2018-07-14T02:49:14.898Z,81.10
2018-07-14T02:51:18.679Z,82.10
2018-07-14T02:53:22.228Z,83.10
2018-07-14T02:55:25.753Z,83.60
2018-07-14T02:57:29.574Z,83.00
2018-07-14T02:59:33.074Z,83.30
2018-07-14T03:01:36.634Z,84.40
2018-07-14T03:03:40.152Z,84.70
2018-07-14T03:05:43.716Z,84.30
2018-07-14T03:07:47.211Z,84.50
2018-07-14T03:09:50.725Z,83.90
2018-07-14T03:11:54.233Z,82.90
2018-07-14T03:13:57.747Z,82.10
2018-07-14T03:16:01.244Z,81.40
2018-07-14T03:18:05.393Z,81.60
2018-07-14T03:20:09.197Z,82.60
2018-07-14T03:22:12.723Z,84.90
2018-07-14T03:24:16.205Z,84.50
2018-07-14T03:26:19.758Z,84.60
2018-07-14T03:28:23.339Z,86.90
2018-07-14T03:30:26.845Z,87.50
2018-07-14T03:32:30.476Z,87.20
2018-07-14T03:34:34.086Z,87.30
2018-07-14T03:36:37.624Z,87.60
2018-07-14T03:38:41.128Z,88.00
2018-07-14T03:40:44.629Z,88.40
2018-07-14T03:42:48.204Z,89.10
2018-07-14T03:44:51.772Z,88.40
2018-07-14T03:46:55.342Z,88.50
2018-07-14T03:48:58.819Z,88.10
2018-07-14T03:51:02.397Z,89.00
2018-07-14T03:53:05.971Z,90.40
2018-07-14T03:55:09.620Z,91.00
2018-07-14T03:57:13.219Z,90.70
2018-07-14T03:59:16.706Z,91.40
2018-07-14T04:01:20.216Z,91.10
2018-07-14T04:03:23.774Z,90.70
2018-07-14T04:05:27.496Z,90.60
2018-07-14T04:07:31.103Z,90.20
2018-07-14T04:09:34.623Z,89.20
2018-07-14T04:11:38.205Z,90.00
2018-07-14T04:13:41.855Z,90.30
2018-07-14T04:15:45.627Z,90.50
2018-07-14T04:17:56.401Z,91.00
2018-07-14T04:19:59.916Z,90.90
2018-07-14T04:22:03.452Z,90.20
2018-07-14T04:24:07.211Z,88.80
2018-07-14T04:26:10.732Z,87.10
2018-07-14T04:28:14.319Z,85.30
2018-07-14T04:30:17.940Z,85.10
2018-07-14T04:32:21.480Z,84.90
2018-07-14T04:34:24.983Z,84.20
2018-07-14T04:36:28.531Z,84.50
2018-07-14T04:38:32.030Z,85.30
2018-07-14T04:40:35.592Z,85.40
2018-07-14T04:42:39.203Z,86.20
2018-07-14T04:44:42.824Z,85.80
2018-07-14T04:46:46.375Z,85.50
2018-07-14T04:48:49.863Z,85.30
2018-07-14T04:50:53.379Z,85.40
2018-07-14T04:52:56.895Z,85.10
2018-07-14T04:55:00.408Z,85.70
2018-07-14T04:57:03.924Z,86.10
2018-07-14T05:01:10.662Z,84.70
2018-07-14T05:03:14.159Z,85.20
2018-07-14T05:05:17.640Z,85.10
2018-07-14T05:07:21.223Z,85.60
2018-07-14T05:09:24.798Z,85.10
2018-07-14T05:11:28.340Z,85.20
2018-07-14T05:13:31.889Z,84.90
2018-07-14T05:15:35.371Z,85.10
2018-07-14T05:19:42.026Z,84.10
2018-07-14T05:21:45.594Z,84.10
2018-07-14T05:23:49.095Z,83.60
2018-07-14T05:25:52.692Z,83.90
2018-07-14T05:27:56.227Z,82.70
2018-07-14T05:29:59.783Z,83.20
2018-07-14T05:32:03.351Z,82.80
2018-07-14T05:34:07.027Z,82.10
2018-07-14T05:36:10.585Z,82.10
2018-07-14T05:38:14.218Z,82.80
2018-07-14T05:40:17.795Z,82.70
2018-07-14T05:42:21.376Z,82.30
2018-07-14T05:44:24.894Z,81.70
2018-07-14T05:46:28.404Z,81.10
2018-07-14T05:48:31.971Z,80.20
2018-07-14T05:50:35.642Z,80.40
2018-07-14T05:52:39.186Z,80.60
2018-07-14T05:54:42.707Z,81.10
2018-07-14T05:56:46.210Z,81.20
2018-07-14T05:58:50.059Z,82.00
2018-07-14T06:00:53.679Z,82.70
2018-07-14T06:02:57.206Z,84.80
2018-07-14T06:05:00.780Z,84.40
2018-07-14T06:07:04.459Z,83.50
2018-07-14T06:09:08.506Z,82.00
2018-07-14T06:11:12.190Z,81.30
2018-07-14T06:13:15.700Z,81.30
2018-07-14T06:15:19.252Z,81.20
2018-07-14T06:17:22.953Z,82.40
2018-07-14T06:19:26.448Z,81.80
2018-07-14T06:21:29.962Z,82.00
2018-07-14T06:23:33.510Z,81.40
2018-07-14T06:25:37.051Z,80.90
2018-07-14T06:27:40.693Z,80.50
2018-07-14T06:29:44.218Z,80.50
2018-07-14T06:31:47.939Z,79.80
2018-07-14T06:33:51.584Z,79.50
2018-07-14T06:35:55.068Z,79.30
2018-07-14T06:37:58.734Z,79.00
2018-07-14T06:40:02.299Z,78.80
2018-07-14T06:42:05.935Z,78.70
2018-07-14T06:44:09.548Z,78.90
2018-07-14T06:46:13.066Z,79.20
2018-07-14T06:48:16.590Z,79.80
2018-07-14T06:50:20.270Z,79.20
2018-07-14T06:52:23.799Z,78.90
2018-07-14T06:54:27.319Z,79.20
2018-07-14T06:56:30.801Z,77.90
2018-07-14T06:58:34.327Z,77.60
2018-07-14T07:00:37.823Z,77.80
2018-07-14T07:02:41.333Z,77.40
2018-07-14T07:04:44.835Z,76.00
2018-07-14T07:06:48.425Z,77.30
2018-07-14T07:08:51.959Z,77.10
2018-07-14T07:10:55.508Z,75.80
2018-07-14T07:12:59.133Z,76.20
2018-07-14T07:15:02.716Z,76.40
2018-07-14T07:17:06.374Z,76.30
2018-07-14T07:19:09.984Z,76.60
2018-07-14T07:21:13.488Z,76.10
2018-07-14T07:23:17.079Z,75.40
2018-07-14T07:25:20.597Z,74.90
2018-07-14T07:27:24.113Z,77.10
2018-07-14T07:29:27.629Z,76.10
2018-07-14T07:31:31.228Z,75.50
2018-07-14T07:33:34.745Z,75.90
2018-07-14T07:35:38.294Z,75.30
2018-07-14T07:37:45.409Z,75.50
2018-07-14T07:39:49.268Z,76.10
2018-07-14T07:41:52.923Z,75.60
2018-07-14T07:43:56.447Z,75.60
2018-07-14T07:45:59.961Z,73.50
2018-07-14T07:48:03.487Z,73.10
2018-07-14T07:50:07.224Z,72.90
2018-07-14T07:52:10.799Z,73.70
2018-07-14T07:54:14.318Z,72.80
2018-07-14T07:56:17.803Z,72.70
2018-07-14T07:58:21.351Z,72.30
2018-07-14T08:00:24.876Z,72.20
2018-07-14T08:02:28.459Z,72.30
2018-07-14T08:04:32.218Z,71.70
2018-07-14T08:08:39.136Z,71.60
2018-07-14T08:10:42.595Z,71.60
2018-07-14T08:12:46.191Z,72.30
2018-07-14T08:14:49.760Z,72.50
2018-07-14T08:16:53.234Z,72.20
2018-07-14T08:18:56.696Z,71.20
2018-07-14T08:21:00.222Z,70.10
2018-07-14T08:23:03.811Z,69.70
2018-07-14T08:25:07.463Z,69.00
2018-07-14T08:27:11.013Z,68.80
2018-07-14T08:29:14.580Z,69.50
2018-07-14T08:33:21.270Z,69.00
2018-07-14T08:35:24.864Z,70.60
2018-07-14T08:37:28.383Z,70.00
2018-07-14T08:39:31.993Z,69.60
2018-07-14T08:41:35.475Z,69.60
2018-07-14T08:43:38.994Z,67.70
2018-07-14T08:45:42.587Z,67.40
2018-07-14T08:47:46.198Z,68.30
2018-07-14T08:49:49.743Z,68.00
2018-07-14T08:51:53.362Z,66.50
2018-07-14T08:53:56.991Z,67.50
2018-07-14T08:56:00.848Z,68.90
2018-07-14T08:58:04.418Z,67.60
2018-07-14T09:00:07.870Z,66.20
2018-07-14T09:02:11.482Z,63.60
2018-07-14T09:04:14.977Z,65.80
2018-07-14T09:06:18.509Z,66.00
2018-07-14T09:08:22.059Z,63.60
2018-07-14T09:10:25.566Z,65.80
2018-07-14T09:12:29.092Z,63.70
2018-07-14T09:14:32.625Z,61.60
2018-07-14T09:16:36.171Z,61.70
2018-07-14T09:18:39.731Z,63.30
2018-07-14T09:20:43.254Z,62.60
2018-07-14T09:22:46.851Z,62.00
2018-07-14T09:24:50.354Z,62.20
2018-07-14T09:26:54.226Z,62.50
2018-07-14T09:28:57.828Z,63.40
2018-07-14T09:31:01.347Z,61.30
2018-07-14T09:33:04.915Z,59.20
2018-07-14T09:35:08.567Z,60.80
2018-07-14T09:37:12.108Z,59.60
2018-07-14T09:39:15.571Z,60.90
2018-07-14T09:41:19.102Z,60.20
2018-07-14T09:43:22.581Z,59.20
2018-07-14T09:45:26.132Z,57.70
2018-07-14T09:47:29.605Z,57.70
2018-07-14T09:49:33.136Z,57.40
2018-07-14T09:51:36.735Z,57.90
2018-07-14T09:53:40.289Z,56.60
2018-07-14T09:55:43.896Z,55.60
2018-07-14T09:57:47.391Z,58.00
2018-07-14T09:59:50.883Z,57.40
2018-07-14T10:01:54.446Z,59.60
2018-07-14T10:03:57.943Z,60.10
2018-07-14T10:06:01.513Z,60.90
2018-07-14T10:08:05.270Z,62.00
2018-07-14T10:10:08.878Z,61.50
2018-07-14T10:12:12.308Z,61.40
2018-07-14T10:14:15.956Z,61.50
2018-07-14T10:16:19.477Z,63.60
2018-07-14T10:18:23.064Z,64.30
2018-07-14T10:20:26.543Z,65.50
2018-07-14T10:22:30.166Z,67.10
2018-07-14T10:24:33.637Z,69.30
2018-07-14T10:26:37.231Z,69.80
2018-07-14T10:28:40.762Z,69.80
2018-07-14T10:30:44.306Z,69.10
2018-07-14T10:32:48.068Z,69.60
2018-07-14T10:36:54.721Z,68.30
2018-07-14T10:38:58.323Z,66.10
2018-07-14T10:41:01.841Z,65.60
2018-07-14T10:43:05.747Z,64.70
2018-07-14T10:45:09.355Z,65.10
2018-07-14T10:47:12.879Z,65.40
2018-07-14T10:49:16.423Z,64.00
2018-07-14T10:51:19.972Z,64.50
2018-07-14T10:53:23.519Z,64.70
2018-07-14T10:55:27.018Z,64.10
2018-07-14T10:57:30.752Z,64.50
2018-07-14T10:59:34.249Z,63.40
2018-07-14T11:01:37.762Z,63.70
2018-07-14T11:03:41.278Z,63.00
2018-07-14T11:05:44.788Z,61.70
2018-07-14T11:07:48.273Z,60.20
2018-07-14T11:09:51.887Z,58.80
2018-07-14T11:11:55.429Z,57.60
2018-07-14T11:13:58.968Z,58.20
2018-07-14T11:16:02.464Z,60.60
2018-07-14T11:18:06.005Z,56.90
2018-07-14T11:20:09.496Z,59.30
2018-07-14T11:22:13.008Z,59.10
2018-07-14T11:24:16.547Z,58.30
2018-07-14T11:26:20.071Z,58.30
2018-07-14T11:30:26.892Z,62.30
2018-07-14T11:32:30.410Z,62.40
2018-07-14T11:34:34.037Z,62.80
2018-07-14T11:36:37.547Z,63.60
2018-07-14T11:38:41.051Z,66.60
2018-07-14T11:40:44.605Z,68.40
2018-07-14T11:42:48.225Z,68.20
2018-07-14T11:44:51.827Z,68.70
2018-07-14T11:46:55.394Z,67.90
2018-07-14T11:48:58.999Z,67.60
2018-07-14T11:51:02.551Z,68.00
2018-07-14T11:53:06.098Z,69.30
2018-07-14T11:55:09.616Z,65.80
2018-07-14T11:57:13.184Z,64.70
2018-07-14T11:59:16.687Z,63.90
2018-07-14T12:01:20.331Z,63.20
2018-07-14T12:03:23.799Z,63.50
2018-07-14T12:05:27.296Z,64.00
2018-07-14T12:07:30.820Z,65.20
2018-07-14T12:09:34.421Z,65.00
2018-07-14T12:11:37.943Z,65.20
2018-07-14T12:13:41.541Z,65.00
2018-07-14T12:15:46.708Z,66.00
2018-07-14T12:17:50.336Z,65.70
2018-07-14T12:21:57.011Z,65.40
2018-07-14T12:24:00.831Z,65.20
2018-07-14T12:26:04.340Z,62.70
2018-07-14T12:28:08.301Z,62.20
2018-07-14T12:30:11.976Z,59.80
2018-07-14T12:32:15.443Z,57.20
2018-07-14T12:34:19.027Z,55.60
2018-07-14T12:36:22.611Z,54.80
2018-07-14T12:38:26.191Z,55.80
2018-07-14T12:40:29.702Z,55.30
2018-07-14T12:42:33.220Z,57.00
2018-07-14T12:44:36.711Z,58.40
2018-07-14T12:46:40.267Z,57.10
2018-07-14T12:50:46.939Z,57.70
2018-07-14T12:52:50.563Z,58.70
2018-07-14T12:54:54.926Z,57.70
2018-07-14T12:56:58.698Z,56.90
2018-07-14T12:59:02.207Z,53.70
2018-07-14T13:01:05.848Z,55.40
2018-07-14T13:03:09.382Z,55.00
2018-07-14T13:05:12.922Z,54.90
2018-07-14T13:07:16.473Z,54.50
2018-07-14T13:09:19.973Z,52.90
2018-07-14T13:11:23.601Z,54.00
2018-07-14T13:13:27.123Z,53.10
2018-07-14T13:15:30.625Z,54.60
2018-07-14T13:17:34.253Z,53.80
2018-07-14T13:21:41.051Z,54.00
2018-07-14T13:23:44.559Z,54.70
2018-07-14T13:25:48.728Z,53.60
2018-07-14T13:27:52.326Z,53.00
2018-07-14T13:29:56.832Z,51.40
2018-07-14T13:32:00.821Z,50.80
2018-07-14T13:34:04.379Z,50.80
2018-07-14T13:36:07.868Z,49.60
2018-07-14T13:38:11.394Z,49.90
2018-07-14T13:40:14.910Z,50.60
2018-07-14T13:42:18.403Z,50.40
2018-07-14T13:44:21.938Z,51.30
2018-07-14T13:46:25.499Z,49.20
2018-07-14T13:48:29.203Z,48.80
2018-07-14T13:50:32.822Z,49.10
2018-07-14T13:52:36.360Z,48.70
2018-07-14T13:54:39.980Z,48.90
2018-07-14T13:56:43.520Z,49.00
2018-07-14T14:00:50.341Z,47.70
2018-07-14T14:02:53.895Z,47.20
2018-07-14T14:04:57.451Z,48.40
2018-07-14T14:07:00.939Z,48.30
2018-07-14T14:09:05.315Z,47.50
2018-07-14T14:11:09.060Z,46.90
2018-07-14T14:13:12.595Z,46.40
2018-07-14T14:15:16.186Z,47.30
2018-07-14T14:17:19.700Z,47.50
2018-07-14T14:19:23.307Z,46.40
2018-07-14T14:21:26.844Z,45.20
2018-07-14T14:23:30.383Z,47.60
2018-07-14T14:25:33.964Z,47.60
2018-07-14T14:27:37.482Z,47.20
2018-07-14T14:31:44.563Z,47.20
2018-07-14T14:33:48.192Z,44.50
2018-07-14T14:35:51.834Z,44.30
2018-07-14T14:37:55.343Z,47.10
2018-07-14T14:39:58.884Z,45.20
2018-07-14T14:42:02.389Z,45.10
2018-07-14T14:44:05.905Z,44.30
2018-07-14T14:46:09.463Z,44.50
2018-07-14T14:48:13.023Z,44.10
2018-07-14T14:50:16.578Z,44.00
2018-07-14T14:52:20.108Z,44.60
2018-07-14T14:54:23.645Z,45.00
2018-07-14T14:56:27.224Z,45.40
2018-07-14T14:58:30.746Z,46.30
2018-07-14T15:00:34.279Z,47.10
2018-07-14T15:02:37.796Z,47.10
2018-07-14T15:04:41.387Z,45.50
2018-07-14T15:06:44.828Z,46.50
2018-07-14T15:08:48.371Z,45.40
2018-07-14T15:10:51.934Z,44.80
2018-07-14T15:12:55.523Z,44.90
2018-07-14T15:14:59.031Z,44.60
2018-07-14T15:17:02.555Z,44.30
2018-07-14T15:19:06.148Z,43.70
2018-07-14T15:21:09.646Z,44.00
2018-07-14T15:23:13.196Z,43.60
2018-07-14T15:25:16.715Z,44.70
2018-07-14T15:27:20.222Z,45.20
2018-07-14T15:29:23.764Z,45.90
2018-07-14T15:31:27.292Z,46.50
2018-07-14T15:33:30.847Z,46.10
2018-07-14T15:35:34.358Z,45.20
2018-07-14T15:39:41.150Z,46.20
2018-07-14T15:41:44.655Z,45.30
2018-07-14T15:43:48.293Z,45.40
2018-07-14T15:45:51.884Z,45.70
2018-07-14T15:47:55.432Z,45.70
2018-07-14T15:49:58.922Z,46.00
2018-07-14T15:52:02.559Z,45.90
2018-07-14T15:54:06.546Z,45.30
2018-07-14T15:56:10.073Z,44.40
2018-07-14T15:58:13.596Z,44.60
2018-07-14T16:00:17.178Z,45.30
2018-07-14T16:02:20.736Z,45.40
2018-07-14T16:04:24.231Z,44.70
2018-07-14T16:06:27.826Z,44.90
2018-07-14T16:08:31.329Z,45.20
2018-07-14T16:10:34.819Z,45.70
2018-07-14T16:12:38.346Z,44.70
2018-07-14T16:14:41.885Z,43.60
2018-07-14T16:16:45.542Z,44.20
2018-07-14T16:18:49.071Z,43.10
2018-07-14T16:20:52.562Z,41.20
2018-07-14T16:22:56.080Z,40.60
2018-07-14T16:27:02.778Z,40.10
2018-07-14T16:29:06.430Z,40.10
2018-07-14T16:31:10.008Z,40.50
2018-07-14T16:33:13.488Z,39.40
2018-07-14T16:35:17.110Z,38.70
2018-07-14T16:37:20.589Z,39.30
2018-07-14T16:39:24.132Z,39.30
2018-07-14T16:41:27.669Z,40.50
2018-07-14T16:43:31.195Z,41.50
2018-07-14T16:45:34.884Z,42.20
2018-07-14T16:47:38.429Z,41.30
2018-07-14T16:49:42.045Z,41.50
2018-07-14T16:53:48.763Z,42.50
2018-07-14T16:55:52.351Z,41.00
2018-07-14T16:57:55.987Z,40.80
2018-07-14T16:59:59.510Z,40.60
2018-07-14T17:02:03.029Z,40.80
2018-07-14T17:04:06.565Z,42.10
2018-07-14T17:06:10.078Z,42.70
2018-07-14T17:08:13.594Z,43.10
2018-07-14T17:12:20.351Z,42.90
2018-07-14T17:14:23.872Z,42.50
2018-07-14T17:16:27.382Z,41.90
2018-07-14T17:18:31.054Z,42.10
2018-07-14T17:20:34.574Z,42.70
2018-07-14T17:22:38.097Z,42.50
2018-07-14T17:24:41.636Z,41.50
2018-07-14T17:26:45.111Z,41.00
2018-07-14T17:28:48.639Z,41.90
2018-07-14T17:30:52.123Z,43.20
2018-07-14T17:32:55.643Z,43.70
2018-07-14T17:34:59.177Z,42.90
2018-07-14T17:37:02.748Z,43.10
2018-07-14T17:39:07.879Z,42.00
2018-07-14T17:41:11.410Z,41.80
2018-07-14T17:43:15.058Z,41.70
2018-07-14T17:45:18.579Z,42.50
2018-07-14T17:47:22.176Z,42.30
2018-07-14T17:49:25.762Z,42.60
2018-07-14T17:51:29.426Z,42.60
2018-07-14T17:53:33.062Z,42.50
2018-07-14T17:55:36.630Z,42.70
2018-07-14T17:57:40.100Z,43.10
2018-07-14T17:59:43.718Z,43.50
2018-07-14T18:01:47.151Z,44.20
2018-07-14T18:03:50.664Z,44.60
2018-07-14T18:05:54.143Z,44.80
2018-07-14T18:07:57.644Z,45.10
2018-07-14T18:10:01.231Z,45.30
2018-07-14T18:12:04.833Z,45.50
2018-07-14T18:14:08.367Z,46.10
2018-07-14T18:16:11.916Z,46.00
2018-07-14T18:18:15.402Z,46.50
2018-07-14T18:20:18.906Z,47.00
2018-07-14T18:22:22.409Z,46.50
2018-07-14T18:24:26.054Z,46.60
2018-07-14T18:26:29.621Z,46.50
2018-07-14T18:28:33.199Z,47.80
2018-07-14T18:30:36.995Z,48.00
2018-07-14T18:32:40.506Z,48.10
2018-07-14T18:34:44.067Z,48.10
2018-07-14T18:36:47.572Z,48.00
2018-07-14T18:38:51.144Z,48.20
2018-07-14T18:40:54.815Z,48.50
2018-07-14T18:42:58.303Z,48.60
2018-07-14T18:45:01.900Z,49.10
2018-07-14T18:47:05.443Z,49.40
2018-07-14T18:49:08.942Z,49.20
2018-07-14T18:51:12.490Z,49.20
2018-07-14T18:53:15.986Z,49.40
2018-07-14T18:55:19.519Z,49.40
2018-07-14T18:57:23.088Z,49.70
2018-07-14T18:59:26.631Z,49.90
2018-07-14T19:01:30.180Z,49.80
2018-07-14T19:03:33.729Z,49.80
2018-07-14T19:05:37.297Z,50.80
2018-07-14T19:07:40.814Z,50.90
2018-07-14T19:09:44.303Z,50.80
2018-07-14T19:13:51.067Z,51.30
2018-07-14T19:15:54.606Z,51.30
2018-07-14T19:17:58.128Z,51.90
2018-07-14T19:20:01.721Z,52.60
2018-07-14T19:22:05.239Z,53.30
2018-07-14T19:24:08.740Z,53.60
2018-07-14T19:26:12.402Z,54.30
2018-07-14T19:28:15.795Z,54.30
2018-07-14T19:30:19.340Z,54.50
2018-07-14T19:32:22.899Z,54.50
2018-07-14T19:34:26.440Z,55.10
2018-07-14T19:36:29.983Z,55.40
2018-07-14T19:38:33.652Z,56.00
2018-07-14T19:40:37.178Z,56.00
2018-07-14T19:42:40.672Z,56.20
2018-07-14T19:44:44.159Z,57.10
2018-07-14T19:46:47.737Z,57.70
2018-07-14T19:48:51.395Z,57.40
2018-07-14T19:50:54.977Z,57.10
2018-07-14T19:53:02.715Z,57.20
2018-07-14T19:55:06.335Z,57.70
2018-07-14T19:57:09.842Z,58.90
2018-07-14T19:59:13.352Z,58.80
2018-07-14T20:01:17.001Z,59.10
2018-07-14T20:03:20.490Z,59.00
2018-07-14T20:05:24.049Z,59.60
2018-07-14T20:07:27.575Z,60.10
2018-07-14T20:09:31.113Z,60.20
2018-07-14T20:11:34.719Z,60.10
2018-07-14T20:15:41.409Z,59.30
2018-07-14T20:17:45.026Z,58.50
2018-07-14T20:19:48.540Z,59.20
2018-07-14T20:21:52.134Z,57.80
2018-07-14T20:23:55.623Z,57.70
2018-07-14T20:25:59.216Z,58.20
2018-07-14T20:28:02.817Z,57.80
2018-07-14T20:30:06.712Z,57.70
2018-07-14T20:32:10.244Z,58.50
2018-07-14T20:34:13.855Z,57.90
2018-07-14T20:36:17.471Z,59.10
2018-07-14T20:38:21.036Z,59.10
2018-07-14T20:40:24.595Z,59.20
2018-07-14T20:42:28.146Z,59.80
2018-07-14T20:44:31.848Z,60.90
2018-07-14T20:46:35.346Z,61.60
2018-07-14T20:48:39.036Z,62.80
2018-07-14T20:50:42.540Z,63.10
2018-07-14T20:52:46.229Z,62.90
2018-07-14T20:54:49.730Z,62.80
2018-07-14T20:56:53.235Z,63.00
2018-07-14T20:58:56.802Z,63.70
2018-07-14T21:01:00.376Z,63.80
2018-07-14T21:03:03.875Z,63.30
2018-07-14T21:05:07.372Z,62.70
2018-07-14T21:07:13.734Z,62.20
2018-07-14T21:09:17.415Z,62.30
2018-07-14T21:11:20.954Z,62.80
2018-07-14T21:13:24.463Z,62.40
2018-07-14T21:15:27.977Z,62.40
2018-07-14T21:17:31.517Z,62.50
2018-07-14T21:19:35.025Z,62.90
2018-07-14T21:21:38.572Z,63.80
2018-07-14T21:23:42.133Z,64.90
2018-07-14T21:25:45.759Z,65.00
2018-07-14T21:27:49.389Z,65.20
2018-07-14T21:29:52.960Z,64.60
2018-07-14T21:31:56.625Z,64.30
2018-07-14T21:34:00.123Z,65.30
2018-07-14T21:36:03.627Z,65.10
2018-07-14T21:40:10.802Z,63.90
2018-07-14T21:42:14.373Z,64.10
2018-07-14T21:44:17.940Z,64.40
2018-07-14T21:46:21.500Z,64.50
2018-07-14T21:48:25.283Z,64.90
2018-07-14T21:50:28.828Z,64.70
2018-07-14T21:52:32.374Z,64.90
2018-07-14T21:54:35.872Z,64.70
2018-07-14T21:56:39.430Z,64.40
2018-07-14T21:58:43.047Z,64.00
2018-07-14T22:00:51.814Z,63.80
2018-07-14T22:02:55.348Z,63.60
2018-07-14T22:04:58.998Z,63.80
2018-07-14T22:07:02.523Z,63.30
2018-07-14T22:09:06.176Z,64.20
2018-07-14T22:11:09.665Z,64.00
2018-07-14T22:13:13.199Z,64.60
2018-07-14T22:15:16.938Z,63.80
2018-07-14T22:17:20.473Z,63.90
2018-07-14T22:19:23.999Z,64.90
2018-07-14T22:21:27.567Z,65.50
2018-07-14T22:23:31.165Z,67.50
2018-07-14T22:25:34.691Z,65.70
2018-07-14T22:27:38.220Z,65.10
2018-07-14T22:29:41.706Z,64.50
2018-07-14T22:31:45.220Z,64.30
2018-07-14T22:33:48.782Z,64.10
2018-07-14T22:35:52.326Z,64.70
2018-07-14T22:37:55.983Z,64.50
2018-07-14T22:39:59.472Z,64.30
2018-07-14T22:44:06.207Z,63.80
2018-07-14T22:46:09.715Z,63.70
2018-07-14T22:48:13.230Z,63.70
2018-07-14T22:50:16.832Z,65.40
2018-07-14T22:52:20.344Z,66.40
2018-07-14T22:54:23.940Z,66.40
2018-07-14T22:56:27.467Z,66.60
2018-07-14T22:58:31.038Z,66.30
2018-07-14T23:00:34.527Z,66.50
2018-07-14T23:02:38.123Z,67.40
2018-07-14T23:04:41.631Z,66.70
2018-07-14T23:06:45.251Z,66.30
2018-07-14T23:08:48.751Z,65.40
2018-07-14T23:10:52.250Z,64.90
2018-07-14T23:12:55.815Z,64.50
2018-07-14T23:14:59.464Z,64.50
2018-07-14T23:17:03.014Z,64.60
2018-07-14T23:19:06.510Z,65.20
2018-07-14T23:21:10.057Z,66.30
2018-07-14T23:23:13.550Z,66.20
2018-07-14T23:25:17.037Z,66.00
2018-07-14T23:27:20.611Z,66.00
2018-07-14T23:29:24.222Z,67.90
2018-07-14T23:31:27.708Z,67.80
2018-07-14T23:33:31.191Z,67.50
2018-07-14T23:35:34.695Z,67.40
2018-07-14T23:37:38.228Z,68.30
2018-07-14T23:39:41.775Z,68.70
2018-07-14T23:41:45.331Z,68.10
2018-07-14T23:45:52.137Z,69.20
2018-07-14T23:47:55.628Z,71.10
2018-07-14T23:49:59.137Z,71.90
2018-07-14T23:52:02.778Z,73.60
2018-07-14T23:54:06.430Z,74.40
2018-07-14T23:56:09.970Z,73.60
2018-07-14T23:58:13.641Z,74.20
